Terminal Aerodrome Forecast
Issued by NWS Wilmington, OH

Home | Current Version | Previous Version | Text Only | Print | Product List | Glossary On
Versions: 1 2 3 4 5 6 7 8 9 10 11 12 13 14 15 16 17 18 19
554
FTUS41 KILN 181737
TAFILN
TAF
KILN 181737Z 1818/1918 23011KT 4SM -DZ BR OVC006
     FM182200 23009KT 5SM -DZ BR OVC012
     FM190200 23009KT P6SM OVC015
     FM191600 24012KT P6SM BKN016
     FM191700 24013KT P6SM BKN025=

USA.gov is the U.S. government's official web portal to all federal, state and local government web resources and services.